AirNav   Everest Fuels
 
 836 users online  

91TS Songbird Ranch Airport
Rosharon, Texas, USA

GOING TO ROSHARON?


FAA INFORMATION EFFECTIVE 18 JUNE 2020

Location

FAA Identifier: 91TS
Lat/Long: 29-22-02.6700N 095-20-26.0000W
29-22.044500N 095-20.433333W
29.3674083,-95.3405556
(estimated)
Elevation: 34 ft. / 10 m (estimated)
Variation: 06E (1985)
From city: 6 miles E of ROSHARON, TX
Time zone: UTC -5 (UTC -6 during Standard Time)
Zip code: 77583

Airport Operations

Airport use: Private use. Permission required prior to landing
Activation date: 06/1987
Control tower: no
ARTCC: HOUSTON CENTER
FSS: MONTGOMERY COUNTY FLIGHT SERVICE STATION
Attendance: UNATNDD
Wind indicator: yes
Segmented circle: no

Airport Communications

WX ASOS at LVJ (11 nm NE): 118.525 (281-992-1853)
WX AWOS-3 at AXH (11 nm NW): 123.625 (281-431-6572)
WX ASOS at LBX (17 nm S): 119.925 (979-849-3319)
WX ASOS at HOU (17 nm N): PHONE 713-847-1462
WX AWOS-3 at EFD (17 nm NE): 135.575 (713-847-4430)

Nearby radio navigation aids

VOR radial/distance  VOR name  Freq  Var
VUHr277/25.4SCHOLES VOR/DME113.0006E
MHFr244/32.8TRINITY VOR/DME113.6007E
IAHr175/35.4HUMBLE VORTAC116.6005E

Airport Services

Runway Information

Runway 15/33

Dimensions: 3200 x 30 ft. / 975 x 9 m
Surface: concrete
RUNWAY 15  RUNWAY 33
Traffic pattern: leftright
Obstructions: 50 ft. trees, 300 ft. from runway40 ft. pline, 150 ft. from runway

Airport Ownership and Management from official FAA records

Ownership: Privately-owned
Owner: SONGBIRD RANCH INC
16 SONGBIRD DRIVE
ROSHARON, TX 77583
Phone 281-331-0195
Manager: NEILL NORTHINGTON
16 SONGBIRD DRIVE
ROSHARON, TX 77583
Phone 281-585-5199
OTHER CONTACT RICK CARR 281-331-0195

Airport Operational Statistics

Aircraft based on the field: 18
Single engine airplanes: 16
Multi engine airplanes: 2
    

Additional Remarks

FOR CD CTC HOUSTON ARTCC AT 281-230-5622.

Instrument Procedures

There are no published instrument procedures at 91TS.

Some nearby airports with instrument procedures:

KLVJ - Pearland Regional Airport (11 nm NE)
KAXH - Houston Southwest Airport (11 nm NW)
KLBX - Texas Gulf Coast Regional Airport (17 nm S)
KHOU - William P Hobby Airport (17 nm N)
KEFD - Ellington Airport (17 nm NE)
 
Loc | Ops | Rwys | IFR | FBO | Links
Com | Nav | Svcs | Stats | Notes
Area around 91TS (Songbird Ranch Airport)
 
Road maps at: MapQuest Bing Google
 
Aerial photo
WARNING: Photo may not be current or correct
Aerial photo of 91TS (Songbird Ranch Airport)
Photo taken 11-May-2009

Do you have a better or more recent aerial photo of Songbird Ranch Airport that you would like to share? If so, please send us your photo.

 
Sectional chart

 
Airport distance calculator
Flying to Songbird Ranch Airport? Find the distance to fly.

From to 91TS

Sunrise and sunset
Times for 03-Jul-2020
 Local
(UTC-5)
 Zulu
(UTC)
Morning civil twilight06:0011:00
Sunrise06:2811:28
Sunset20:2401:24
Evening civil twilight20:5101:51

Current date and time
Zulu (UTC)  03-Jul-2020 23:47:58
Local (UTC-5)  03-Jul-2020 18:47:58
 
METAR
KLVJ 
10nm NE 
032253Z AUTO 26004KT 8SM CLR 35/21 A2993 RMK AO2 SLP135 T03500206
KAXH 
11nm NW 
032335Z AUTO 00000KT 10SM CLR 33/23 A2994 RMK AO2 T03310229
KHOU 
16nm N 
032253Z 00000KT 10SM FEW055 BKN250 35/21 A2991 RMK AO2 SLP132 T03500206
KLBX 
16nm SW 
032253Z AUTO 00000KT 10SM CLR 34/23 A2992 RMK AO2 SLP132 T03390228
KEFD 
17nm NE 
032250Z 26006KT 8SM FEW055 35/22 A2991
TAF
KHOU 
16nm N 
032115Z 0321/0418 VRB06KT P6SM SCT250 FM040300 VRB03KT P6SM FEW250 FM041100 24003KT P6SM SCT015 SCT025 BKN250 FM041500 27007KT P6SM FEW025 SCT090
KLBX 
16nm SW 
031720Z 0318/0418 25006KT P6SM FEW250 FM031900 20009KT P6SM SKC FM040300 VRB04KT P6SM SKC FM041200 24003KT P6SM SCT020 SCT030 FM041500 26007KT P6SM FEW020 SCT080
KEFD 
17nm NE 
032000Z 0320/0502 24006KT 9999 FEW040 BKN150 QNH2985INS BECMG 0408/0409 24006KT 8000 BR SCT015 BKN150 QNH2990INS BECMG 0413/0414 30006KT 9999 NSW SCT090 QNH2980INS TX36/0323Z TN25/0412Z
NOTAMs
Click for the latest NOTAMs
NOTAMs are issued by the DoD/FAA and will open in a separate window not controlled by AirNav.

 

 
 

Would you like to see your business listed on this page?

 If your business provides an interesting product or service to pilots, flight crews, aircraft, or users of the Songbird Ranch Airport, you should consider listing it here.  To start the listing process, click on the button below
 
Add a business
 

Other Pages about Songbird Ranch Airport

Update a link
 
Copyright © AirNav, LLC. All rights reserved. Privacy Policy  Contact